Time;durP1;ratioP1;P1;durP2;ratioP2;P2;SDS_P1;SDS_P2;PMS_P1;PMS_P2;Temp;Humidity;BMP_temperature;BMP_pressure;BME280_temperature;BME280_humidity;BME280_pressure;Samples;Min_cycle;Max_cycle;Signal;HPM_P1;HPM_P2
2023/08/25 00:00:45;;;;;;;17.48;9.73;;;20.00;99.90;;;;;;5041484;28;20041;-88
2023/08/25 00:03:10;;;;;;;15.15;9.80;;;20.00;99.90;;;;;;5047282;28;20041;-87
2023/08/25 00:05:37;;;;;;;14.15;9.82;;;20.00;99.90;;;;;;5040248;28;20293;-87
2023/08/25 00:08:03;;;;;;;15.63;9.32;;;20.00;99.90;;;;;;5051395;28;20063;-87
2023/08/25 00:10:29;;;;;;;13.93;9.85;;;20.00;99.90;;;;;;5051615;28;20032;-88
2023/08/25 00:12:55;;;;;;;14.05;9.77;;;19.90;99.90;;;;;;5051277;28;20040;-87
2023/08/25 00:15:20;;;;;;;13.93;9.63;;;19.90;99.90;;;;;;5031378;28;20048;-87
2023/08/25 00:17:46;;;;;;;16.50;10.82;;;19.80;99.90;;;;;;5028200;28;20045;-87
2023/08/25 00:20:12;;;;;;;14.35;9.63;;;19.80;99.90;;;;;;5041422;28;20033;-87
2023/08/25 00:22:38;;;;;;;15.05;10.73;;;19.80;99.90;;;;;;5051198;28;20539;-87
2023/08/25 00:25:05;;;;;;;15.93;10.35;;;19.80;99.90;;;;;;5031543;28;20091;-88
2023/08/25 00:27:30;;;;;;;15.38;10.52;;;19.80;99.90;;;;;;5032670;28;20044;-88
2023/08/25 00:29:56;;;;;;;15.93;11.15;;;19.80;99.90;;;;;;5026511;28;20037;-87
2023/08/25 00:32:22;;;;;;;16.42;11.27;;;19.70;99.90;;;;;;5032050;28;20036;-88
2023/08/25 00:34:47;;;;;;;16.00;11.35;;;19.70;99.90;;;;;;5031510;28;20478;-88
2023/08/25 00:37:13;;;;;;;16.80;11.15;;;19.70;99.90;;;;;;5034882;28;20102;-88
2023/08/25 00:39:39;;;;;;;16.88;11.27;;;19.70;99.90;;;;;;5040887;28;20116;-88
2023/08/25 00:42:05;;;;;;;17.08;11.57;;;19.60;99.90;;;;;;5040269;28;20037;-88
2023/08/25 00:44:31;;;;;;;17.25;11.55;;;19.60;99.90;;;;;;5031005;28;20037;-88
2023/08/25 00:46:58;;;;;;;16.63;11.32;;;19.60;99.90;;;;;;5042977;28;20052;-88
2023/08/25 00:49:24;;;;;;;16.63;11.68;;;19.60;99.90;;;;;;5033727;28;20045;-88
2023/08/25 00:51:51;;;;;;;18.40;12.27;;;19.60;99.90;;;;;;5059576;28;20036;-88
2023/08/25 00:54:18;;;;;;;18.25;12.90;;;19.60;99.90;;;;;;5031470;28;20040;-88
2023/08/25 00:56:46;;;;;;;17.40;12.20;;;19.60;99.90;;;;;;5045328;28;20489;-87
2023/08/25 00:59:12;;;;;;;16.70;12.27;;;19.70;99.90;;;;;;5034465;28;20051;-87
2023/08/25 01:01:37;;;;;;;16.17;12.52;;;19.60;99.90;;;;;;5028669;28;20040;-87
2023/08/25 01:04:03;;;;;;;18.48;13.02;;;19.60;99.90;;;;;;5034687;28;20041;-88
2023/08/25 01:06:29;;;;;;;17.25;12.38;;;19.70;99.90;;;;;;5024321;28;20493;-88
2023/08/25 01:08:54;;;;;;;19.65;13.65;;;19.70;99.90;;;;;;5045625;28;20116;-88
2023/08/25 01:11:43;;;;;;;18.00;13.50;;;19.70;99.90;;;;;;5034195;28;20049;-88
2023/08/25 01:14:09;;;;;;;19.55;13.57;;;19.70;99.90;;;;;;5052483;28;20132;-88
2023/08/25 01:16:52;;;;;;;17.60;12.85;;;19.70;99.90;;;;;;5070929;28;20129;-88
2023/08/25 01:19:42;;;;;;;18.08;12.48;;;19.70;99.90;;;;;;5054252;28;20060;-88
2023/08/25 01:22:16;;;;;;;20.08;13.68;;;19.80;99.90;;;;;;5054226;28;20094;-88
2023/08/25 01:24:46;;;;;;;19.00;14.05;;;19.80;99.90;;;;;;5054345;28;20067;-88
2023/08/25 01:27:12;;;;;;;18.98;13.63;;;19.80;99.90;;;;;;5053517;28;20140;-88
2023/08/25 01:29:42;;;;;;;18.30;13.45;;;19.80;99.90;;;;;;5054029;28;20512;-88
2023/08/25 01:32:07;;;;;;;19.35;15.00;;;19.80;99.90;;;;;;5053389;28;20040;-88
2023/08/25 01:34:33;;;;;;;19.63;15.20;;;19.80;99.90;;;;;;5034007;28;20040;-87
2023/08/25 01:37:10;;;;;;;19.20;14.43;;;19.80;99.90;;;;;;5030901;28;20082;-87
2023/08/25 01:39:39;;;;;;;20.52;15.23;;;19.80;99.90;;;;;;5050540;28;20051;-87
2023/08/25 01:42:07;;;;;;;18.35;14.13;;;19.80;99.90;;;;;;5032477;28;20225;-87
2023/08/25 01:44:34;;;;;;;18.98;14.00;;;19.80;99.90;;;;;;5053892;28;20064;-87
2023/08/25 01:47:06;;;;;;;20.08;15.05;;;19.80;99.90;;;;;;5053293;28;20109;-87
2023/08/25 01:49:32;;;;;;;20.00;14.77;;;19.80;99.90;;;;;;5070442;28;20179;-87
2023/08/25 01:52:02;;;;;;;20.48;15.02;;;19.70;99.90;;;;;;5053518;28;20041;-87
2023/08/25 01:54:27;;;;;;;19.20;15.02;;;19.70;99.90;;;;;;5053899;28;20089;-87
2023/08/25 01:56:53;;;;;;;20.48;16.15;;;19.70;99.90;;;;;;5018962;28;20049;-87
2023/08/25 01:59:19;;;;;;;21.90;16.58;;;19.70;99.90;;;;;;5033267;28;20048;-87
2023/08/25 02:01:45;;;;;;;20.38;15.82;;;19.60;99.90;;;;;;5028985;28;20036;-87
2023/08/25 02:04:10;;;;;;;21.70;15.65;;;19.60;99.90;;;;;;5033306;28;20044;-87
2023/08/25 02:06:36;;;;;;;21.70;16.67;;;19.60;99.90;;;;;;5027267;28;20037;-88
2023/08/25 02:09:03;;;;;;;22.10;18.00;;;19.60;99.90;;;;;;5033288;28;20041;-88
2023/08/25 02:11:28;;;;;;;23.30;16.88;;;19.50;99.90;;;;;;5026644;28;20520;-87
2023/08/25 02:13:54;;;;;;;23.67;17.25;;;19.50;99.90;;;;;;5063201;28;20120;-88
2023/08/25 02:16:19;;;;;;;24.95;18.13;;;19.50;99.90;;;;;;5009027;28;20096;-87
2023/08/25 02:18:45;;;;;;;22.30;17.88;;;19.50;99.90;;;;;;5051522;28;20052;-88
2023/08/25 02:21:11;;;;;;;21.90;17.85;;;19.40;99.90;;;;;;5052679;28;20119;-87
2023/08/25 02:23:36;;;;;;;22.08;17.02;;;19.40;99.90;;;;;;5016696;28;20094;-87
2023/08/25 02:26:02;;;;;;;22.48;17.55;;;19.40;99.90;;;;;;5039763;28;20466;-88
2023/08/25 02:28:28;;;;;;;22.58;17.75;;;19.40;99.90;;;;;;5052699;28;20033;-87
2023/08/25 02:30:54;;;;;;;21.42;16.90;;;19.40;99.90;;;;;;5032852;28;20076;-87
2023/08/25 02:33:20;;;;;;;22.17;16.50;;;19.40;99.90;;;;;;5044498;28;20071;-87
2023/08/25 02:35:46;;;;;;;27.67;18.00;;;19.40;99.90;;;;;;5032755;28;20041;-87
2023/08/25 02:38:12;;;;;;;22.23;17.27;;;19.40;99.90;;;;;;5029968;28;20106;-87
2023/08/25 02:40:38;;;;;;;23.73;17.25;;;19.40;99.90;;;;;;5049826;28;20143;-86
2023/08/25 02:43:04;;;;;;;23.77;17.55;;;19.30;99.90;;;;;;5033745;28;20510;-87
2023/08/25 02:45:32;;;;;;;22.77;18.38;;;19.30;99.90;;;;;;5032467;28;20498;-87
2023/08/25 02:47:58;;;;;;;25.60;18.83;;;19.30;99.90;;;;;;5027323;28;20360;-87
2023/08/25 02:50:24;;;;;;;23.50;18.13;;;19.30;99.90;;;;;;5032569;28;20598;-87
2023/08/25 02:52:50;;;;;;;22.15;17.50;;;19.30;99.90;;;;;;5045459;28;20086;-87
2023/08/25 02:55:19;;;;;;;22.02;17.58;;;19.30;99.90;;;;;;5052069;28;20083;-87
2023/08/25 02:57:45;;;;;;;21.30;16.33;;;19.30;99.90;;;;;;5065313;28;20501;-88
2023/08/25 03:00:16;;;;;;;21.42;17.17;;;19.30;99.90;;;;;;5052342;28;20113;-87
2023/08/25 03:02:42;;;;;;;22.92;16.90;;;19.50;99.90;;;;;;5051949;28;20631;-87
2023/08/25 03:05:09;;;;;;;19.85;16.10;;;19.30;99.90;;;;;;5052029;28;20398;-87
2023/08/25 03:07:35;;;;;;;20.58;16.42;;;19.40;99.90;;;;;;5052091;28;20047;-87
2023/08/25 03:10:02;;;;;;;22.35;17.25;;;19.30;99.90;;;;;;5032308;28;20033;-87
2023/08/25 03:12:28;;;;;;;25.00;17.27;;;19.40;99.90;;;;;;5026717;28;20366;-87
2023/08/25 03:14:54;;;;;;;22.88;17.65;;;19.40;99.90;;;;;;5048766;28;20387;-87
2023/08/25 03:17:21;;;;;;;21.58;17.08;;;19.40;99.90;;;;;;5038966;28;20037;-87
2023/08/25 03:19:47;;;;;;;21.55;16.90;;;19.40;99.90;;;;;;5045993;28;20411;-88
2023/08/25 03:22:12;;;;;;;20.65;16.55;;;19.40;99.90;;;;;;5051572;28;20051;-87
2023/08/25 03:24:38;;;;;;;22.33;17.63;;;19.40;99.90;;;;;;5051809;28;20047;-87
2023/08/25 03:27:04;;;;;;;24.10;18.15;;;19.40;99.90;;;;;;5031468;28;20044;-86
2023/08/25 03:29:31;;;;;;;22.92;18.00;;;19.40;99.90;;;;;;5050197;28;20493;-87
2023/08/25 03:31:58;;;;;;;25.05;18.65;;;19.40;99.90;;;;;;5048352;28;20370;-86
2023/08/25 03:34:24;;;;;;;22.00;17.33;;;19.40;99.90;;;;;;5028272;28;20126;-87
2023/08/25 03:36:50;;;;;;;22.73;17.58;;;19.40;99.90;;;;;;5068731;28;20045;-86
2023/08/25 03:39:15;;;;;;;22.50;17.25;;;19.40;99.90;;;;;;5068472;28;20404;-86
2023/08/25 03:41:41;;;;;;;22.33;16.98;;;19.40;99.90;;;;;;5031533;28;20525;-87
2023/08/25 03:44:07;;;;;;;22.80;17.23;;;19.40;99.90;;;;;;5025731;28;20044;-87
2023/08/25 03:46:33;;;;;;;26.23;18.15;;;19.40;99.90;;;;;;5034819;28;20459;-87
2023/08/25 03:48:59;;;;;;;24.85;18.35;;;19.40;99.90;;;;;;5035265;28;20041;-86
2023/08/25 03:51:25;;;;;;;24.85;19.02;;;19.40;99.90;;;;;;5031466;28;20596;-87
2023/08/25 03:53:50;;;;;;;23.33;18.67;;;19.40;99.90;;;;;;5043663;28;20075;-87
2023/08/25 03:56:16;;;;;;;24.75;18.80;;;19.40;99.90;;;;;;5031280;28;20045;-87
2023/08/25 03:58:42;;;;;;;25.00;19.25;;;19.40;99.90;;;;;;5026535;28;20083;-87
2023/08/25 04:01:08;;;;;;;24.70;18.23;;;19.40;99.90;;;;;;5047630;28;20497;-87
2023/08/25 04:03:34;;;;;;;22.63;18.17;;;19.40;99.90;;;;;;5022380;28;20044;-86
2023/08/25 04:06:00;;;;;;;24.02;18.25;;;19.40;99.90;;;;;;5048278;28;20457;-87
2023/08/25 04:08:25;;;;;;;23.40;18.55;;;19.40;99.90;;;;;;5031269;28;20429;-86
2023/08/25 04:10:52;;;;;;;24.40;18.92;;;19.30;99.90;;;;;;5031526;28;20044;-87
2023/08/25 04:13:18;;;;;;;23.30;18.92;;;19.30;99.90;;;;;;5051538;28;20037;-86
2023/08/25 04:15:44;;;;;;;24.63;18.23;;;19.40;99.90;;;;;;5050157;28;20044;-87
2023/08/25 04:18:10;;;;;;;23.25;17.73;;;19.30;99.90;;;;;;5069341;28;20051;-87
2023/08/25 04:20:36;;;;;;;26.23;19.13;;;19.30;99.90;;;;;;5033073;28;20286;-87
2023/08/25 04:23:02;;;;;;;25.48;18.45;;;19.30;99.90;;;;;;5033435;28;20405;-87
2023/08/25 04:25:29;;;;;;;23.92;19.55;;;19.30;99.90;;;;;;5052774;28;20455;-87
2023/08/25 04:27:56;;;;;;;23.23;18.83;;;19.30;99.90;;;;;;5054958;28;20527;-87
2023/08/25 04:30:22;;;;;;;23.98;18.00;;;19.30;99.90;;;;;;5019271;28;20032;-86
2023/08/25 04:32:52;;;;;;;24.65;18.80;;;19.30;99.90;;;;;;5051967;28;20099;-87
2023/08/25 04:35:18;;;;;;;25.70;19.38;;;19.30;99.90;;;;;;5052070;28;20040;-86
2023/08/25 04:37:47;;;;;;;24.30;18.48;;;19.30;99.90;;;;;;5051168;28;20098;-86
2023/08/25 04:40:17;;;;;;;25.50;19.60;;;19.30;99.90;;;;;;5028241;28;20077;-86
2023/08/25 04:42:43;;;;;;;27.00;19.33;;;19.20;99.90;;;;;;5068190;28;20103;-87
2023/08/25 04:45:13;;;;;;;25.77;18.55;;;19.30;99.90;;;;;;5047603;28;20041;-87
2023/08/25 04:47:39;;;;;;;25.15;19.13;;;19.30;99.90;;;;;;5051529;28;20065;-87
2023/08/25 04:50:07;;;;;;;25.40;19.45;;;19.30;99.90;;;;;;5047644;28;20052;-87
2023/08/25 04:52:36;;;;;;;26.08;18.98;;;19.30;99.90;;;;;;5034428;28;20041;-87
2023/08/25 04:55:04;;;;;;;25.27;19.50;;;19.30;99.90;;;;;;5047824;28;20041;-87
2023/08/25 04:57:30;;;;;;;24.77;19.13;;;19.30;99.90;;;;;;5054328;28;20036;-86
2023/08/25 04:59:56;;;;;;;27.73;20.23;;;19.30;99.90;;;;;;5034659;28;20047;-86
2023/08/25 05:02:21;;;;;;;25.52;19.17;;;19.30;99.90;;;;;;5049241;28;20052;-86
2023/08/25 05:04:47;;;;;;;28.38;19.80;;;19.30;99.90;;;;;;5025626;28;20596;-87
2023/08/25 05:07:13;;;;;;;24.50;18.85;;;19.30;99.90;;;;;;5067963;28;20040;-86
2023/08/25 05:09:39;;;;;;;27.83;18.77;;;19.30;99.90;;;;;;5034751;28;20049;-86
2023/08/25 05:12:05;;;;;;;27.77;20.05;;;19.30;99.90;;;;;;5066987;28;20389;-86
2023/08/25 05:14:30;;;;;;;27.30;20.58;;;19.30;99.90;;;;;;5034553;28;20266;-87
2023/08/25 05:16:56;;;;;;;27.10;20.70;;;19.30;99.90;;;;;;5049813;28;20622;-87
2023/08/25 05:19:22;;;;;;;29.75;20.42;;;19.30;99.90;;;;;;5054318;28;20040;-87
2023/08/25 05:21:47;;;;;;;27.38;20.35;;;19.40;99.90;;;;;;5035306;28;20041;-87
2023/08/25 05:24:18;;;;;;;26.50;19.88;;;19.40;99.90;;;;;;5054211;28;20048;-87
2023/08/25 05:26:44;;;;;;;28.20;21.05;;;19.40;99.90;;;;;;5053970;28;20033;-87
2023/08/25 05:29:10;;;;;;;27.08;19.70;;;19.40;99.90;;;;;;5071103;28;20145;-86
2023/08/25 05:31:35;;;;;;;28.92;20.40;;;19.40;99.90;;;;;;5034697;28;20497;-87
2023/08/25 05:34:01;;;;;;;28.98;20.98;;;19.40;99.90;;;;;;5033635;28;20293;-86
2023/08/25 05:36:27;;;;;;;27.92;20.73;;;19.40;99.90;;;;;;5027367;28;20106;-86
2023/08/25 05:38:53;;;;;;;27.38;20.13;;;19.50;99.90;;;;;;5033640;28;20045;-86
2023/08/25 05:41:18;;;;;;;34.10;22.52;;;19.40;99.90;;;;;;5026121;28;20529;-86
2023/08/25 05:43:44;;;;;;;27.95;20.67;;;19.40;99.90;;;;;;5032050;28;20037;-86
2023/08/25 05:46:10;;;;;;;29.15;20.42;;;19.50;99.90;;;;;;5025258;28;20081;-86
2023/08/25 05:48:35;;;;;;;29.02;21.23;;;19.50;99.90;;;;;;5035206;28;20037;-86
2023/08/25 05:51:01;;;;;;;32.00;22.23;;;19.50;99.90;;;;;;5033643;28;20387;-86
2023/08/25 05:53:27;;;;;;;29.98;22.45;;;20.30;99.90;;;;;;5047187;28;20043;-87
2023/08/25 05:55:53;;;;;;;30.52;21.98;;;19.60;99.90;;;;;;5033895;28;20048;-87
2023/08/25 05:58:18;;;;;;;32.55;22.67;;;19.60;99.90;;;;;;5049306;28;20040;-87
2023/08/25 06:00:45;;;;;;;30.92;22.05;;;19.60;99.90;;;;;;5067125;28;20045;-87
2023/08/25 06:03:10;;;;;;;32.20;22.35;;;19.60;99.90;;;;;;5030158;28;20156;-86
2023/08/25 06:05:36;;;;;;;35.03;23.73;;;19.60;99.90;;;;;;5033544;28;20120;-87
2023/08/25 06:08:02;;;;;;;34.38;23.65;;;19.60;99.90;;;;;;5064188;28;20413;-86
2023/08/25 06:10:27;;;;;;;35.45;21.60;;;19.60;99.90;;;;;;5033375;28;20163;-86
2023/08/25 06:12:53;;;;;;;33.97;22.73;;;19.60;99.90;;;;;;5036865;28;20159;-86
2023/08/25 06:15:19;;;;;;;30.30;21.92;;;19.60;99.90;;;;;;5036482;28;20123;-86
2023/08/25 06:17:44;;;;;;;33.45;22.98;;;19.60;99.90;;;;;;5042687;28;20044;-86
2023/08/25 06:20:12;;;;;;;33.65;23.33;;;19.60;99.90;;;;;;5048258;28;20616;-86
2023/08/25 06:22:39;;;;;;;33.92;22.52;;;19.60;99.90;;;;;;5045283;28;20501;-87
2023/08/25 06:25:05;;;;;;;37.58;24.67;;;19.60;99.90;;;;;;5047965;28;20049;-86
2023/08/25 06:27:31;;;;;;;35.08;24.17;;;19.70;99.90;;;;;;5049385;28;20047;-87
2023/08/25 06:29:56;;;;;;;34.78;24.02;;;19.60;99.90;;;;;;5030950;28;20498;-86
2023/08/25 06:32:23;;;;;;;37.35;24.75;;;19.70;99.90;;;;;;5032932;28;20040;-86
2023/08/25 06:34:51;;;;;;;37.33;24.65;;;19.70;99.90;;;;;;5044128;28;20040;-87
2023/08/25 06:37:17;;;;;;;38.88;25.17;;;19.70;99.90;;;;;;5023294;28;20048;-86
2023/08/25 06:39:45;;;;;;;37.00;24.08;;;19.80;99.90;;;;;;5035731;28;20040;-86
2023/08/25 06:42:11;;;;;;;40.20;24.30;;;19.80;99.90;;;;;;5032738;28;20068;-86
2023/08/25 06:44:37;;;;;;;40.55;23.42;;;19.90;99.90;;;;;;5031693;28;20536;-87
2023/08/25 06:47:03;;;;;;;38.67;24.10;;;19.90;99.90;;;;;;5047866;28;20085;-87
2023/08/25 06:49:29;;;;;;;36.65;24.08;;;20.00;99.90;;;;;;5047114;28;20064;-86
2023/08/25 06:51:54;;;;;;;39.47;25.13;;;20.00;99.90;;;;;;5032382;28;20497;-87
2023/08/25 06:54:21;;;;;;;42.13;25.60;;;20.10;99.90;;;;;;5033347;28;20068;-87
2023/08/25 06:56:47;;;;;;;46.42;27.05;;;20.10;99.90;;;;;;5032260;28;20118;-86
2023/08/25 06:59:14;;;;;;;40.15;25.33;;;20.20;99.90;;;;;;5033069;28;20378;-87
2023/08/25 07:01:40;;;;;;;39.63;24.65;;;20.20;99.90;;;;;;5068658;28;20055;-87
2023/08/25 07:04:06;;;;;;;40.25;24.67;;;20.20;99.90;;;;;;5052076;28;20036;-89
2023/08/25 07:06:32;;;;;;;36.42;24.25;;;20.20;99.90;;;;;;5032337;28;20044;-87
2023/08/25 07:08:57;;;;;;;38.25;23.98;;;20.20;99.90;;;;;;5025330;28;20461;-87
2023/08/25 07:11:26;;;;;;;39.95;25.23;;;20.30;99.90;;;;;;5032498;28;20032;-87
2023/08/25 07:13:52;;;;;;;41.28;25.17;;;20.20;99.90;;;;;;5025236;28;20490;-87
2023/08/25 07:16:18;;;;;;;35.78;23.27;;;20.30;99.90;;;;;;5047220;28;20041;-87
2023/08/25 07:18:43;;;;;;;39.90;24.33;;;20.30;99.90;;;;;;5024245;28;20045;-87
2023/08/25 07:21:11;;;;;;;38.83;23.42;;;20.30;99.90;;;;;;5029494;28;20489;-87
2023/08/25 07:23:37;;;;;;;40.55;25.00;;;20.40;99.90;;;;;;5048029;28;20620;-87
2023/08/25 07:26:03;;;;;;;40.20;26.17;;;20.40;99.90;;;;;;5045483;28;20119;-87
2023/08/25 07:28:29;;;;;;;40.35;24.67;;;20.50;99.90;;;;;;5038732;28;20033;-87
2023/08/25 07:30:56;;;;;;;38.40;24.58;;;20.60;99.90;;;;;;5065043;28;20043;-87
2023/08/25 07:33:23;;;;;;;38.80;24.13;;;20.70;99.90;;;;;;5068667;28;20033;-87
2023/08/25 07:35:49;;;;;;;39.35;24.23;;;20.70;99.90;;;;;;5050899;28;20406;-87
2023/08/25 07:38:15;;;;;;;39.50;25.35;;;20.70;99.90;;;;;;5031556;28;20047;-87
2023/08/25 07:40:41;;;;;;;40.03;24.98;;;20.70;99.90;;;;;;5028476;28;20041;-87
2023/08/25 07:43:06;;;;;;;41.00;24.17;;;20.70;99.90;;;;;;5048385;28;20044;-87
2023/08/25 07:45:33;;;;;;;38.08;23.80;;;20.70;99.90;;;;;;5032069;28;20045;-86
2023/08/25 07:48:01;;;;;;;35.70;22.80;;;20.70;99.90;;;;;;5048116;28;20441;-87
2023/08/25 07:50:28;;;;;;;33.72;22.13;;;20.70;99.90;;;;;;5026068;28;20073;-87
2023/08/25 07:52:54;;;;;;;34.60;20.92;;;20.70;99.90;;;;;;5034767;28;20570;-87
2023/08/25 07:55:21;;;;;;;31.27;20.95;;;20.70;99.90;;;;;;5031721;28;20043;-87
2023/08/25 07:57:47;;;;;;;32.78;20.40;;;20.60;99.90;;;;;;5067454;28;20441;-87
2023/08/25 08:00:15;;;;;;;28.60;19.50;;;20.60;99.90;;;;;;5031803;28;20124;-87
2023/08/25 08:02:49;;;;;;;28.02;19.65;;;20.60;99.90;;;;;;5047584;28;20049;-87
2023/08/25 08:05:17;;;;;;;27.70;18.23;;;20.50;99.90;;;;;;5045380;28;20076;-86
2023/08/25 08:07:44;;;;;;;25.77;17.40;;;20.50;99.90;;;;;;5051754;28;20033;-86
2023/08/25 08:10:10;;;;;;;27.45;17.88;;;20.50;99.90;;;;;;5051604;28;20043;-87
2023/08/25 08:12:37;;;;;;;28.42;18.58;;;20.50;99.90;;;;;;5067633;28;20068;-87
2023/08/25 08:15:04;;;;;;;28.25;17.63;;;20.50;99.90;;;;;;5048646;28;20049;-86
2023/08/25 08:17:30;;;;;;;30.42;18.45;;;20.60;99.90;;;;;;5030608;28;20033;-87
2023/08/25 08:19:57;;;;;;;26.30;18.42;;;21.10;99.90;;;;;;5026841;28;20435;-87
2023/08/25 08:22:22;;;;;;;29.35;18.60;;;20.70;99.90;;;;;;5031207;28;20151;-87
2023/08/25 08:24:49;;;;;;;29.52;18.92;;;20.80;99.90;;;;;;5030178;28;20063;-86
2023/08/25 08:27:15;;;;;;;30.55;19.33;;;20.80;99.90;;;;;;5048289;28;20048;-87
2023/08/25 08:29:42;;;;;;;31.35;20.00;;;20.90;99.90;;;;;;5068116;28;20040;-87
2023/08/25 08:32:08;;;;;;;29.83;19.30;;;21.10;99.90;;;;;;5050895;28;20093;-87
2023/08/25 08:34:35;;;;;;;30.90;19.27;;;21.30;99.90;;;;;;5031511;28;20040;-87
2023/08/25 08:37:01;;;;;;;29.17;19.92;;;21.50;99.90;;;;;;5029986;28;20041;-87
2023/08/25 08:39:27;;;;;;;31.63;20.20;;;21.60;99.90;;;;;;5031291;28;20061;-86
2023/08/25 08:41:53;;;;;;;30.55;18.98;;;21.70;99.90;;;;;;5041345;28;20079;-87
2023/08/25 08:44:21;;;;;;;31.38;19.20;;;21.60;99.90;;;;;;5051192;28;20044;-86
2023/08/25 08:46:49;;;;;;;26.23;18.45;;;21.50;99.90;;;;;;5067314;28;20088;-87
2023/08/25 08:49:15;;;;;;;27.95;18.23;;;21.50;99.90;;;;;;5031136;28;20124;-87
2023/08/25 08:51:46;;;;;;;26.42;17.73;;;21.40;99.90;;;;;;5026749;28;20112;-87
2023/08/25 08:54:11;;;;;;;24.40;16.08;;;21.40;99.90;;;;;;5031537;28;20400;-87
2023/08/25 08:56:40;;;;;;;23.15;15.63;;;21.40;99.90;;;;;;5042730;28;20174;-87
2023/08/25 08:59:06;;;;;;;22.10;15.02;;;21.20;99.90;;;;;;5047914;28;20479;-86
2023/08/25 09:01:33;;;;;;;21.67;14.82;;;21.20;99.90;;;;;;5052483;28;20123;-86
2023/08/25 09:04:02;;;;;;;24.40;13.85;;;21.10;99.90;;;;;;5067642;28;20115;-86
2023/08/25 09:06:37;;;;;;;20.70;13.70;;;21.10;99.90;;;;;;5067509;28;20036;-87
2023/08/25 09:09:05;;;;;;;21.10;13.77;;;21.20;99.90;;;;;;5051658;28;20048;-86
2023/08/25 09:11:35;;;;;;;23.10;14.32;;;21.20;99.90;;;;;;5053707;28;20093;-87
2023/08/25 09:14:04;;;;;;;24.75;15.10;;;21.20;99.90;;;;;;5042539;28;20389;-87
2023/08/25 09:16:35;;;;;;;20.75;13.40;;;21.30;99.90;;;;;;5068355;28;20120;-87
2023/08/25 09:19:05;;;;;;;19.30;13.02;;;21.40;99.90;;;;;;5054953;28;20045;-85
2023/08/25 09:21:31;;;;;;;24.10;14.65;;;21.40;99.90;;;;;;5035339;28;20044;-87
2023/08/25 09:23:59;;;;;;;21.40;14.02;;;21.40;99.90;;;;;;5034314;28;20040;-87
2023/08/25 09:26:26;;;;;;;22.25;14.25;;;21.30;99.90;;;;;;5061966;28;20045;-87
2023/08/25 09:28:57;;;;;;;23.65;13.77;;;21.30;99.90;;;;;;5054023;28;20040;-87
2023/08/25 09:31:25;;;;;;;21.17;14.05;;;21.30;99.90;;;;;;5053820;28;20040;-87
2023/08/25 09:33:58;;;;;;;25.23;14.77;;;21.30;99.90;;;;;;5034109;28;20033;-87
2023/08/25 09:36:23;;;;;;;;;;;21.20;99.90;;;;;;5065747;28;20075;-87
2023/08/25 09:38:49;;;;;;;19.50;12.68;;;21.20;99.90;;;;;;5067234;28;19925;-87
2023/08/25 09:41:24;;;;;;;21.60;13.60;;;21.20;99.90;;;;;;5028029;28;20072;-86
2023/08/25 09:43:51;;;;;;;20.92;13.70;;;21.20;99.90;;;;;;5050515;28;20494;-86
2023/08/25 09:46:16;;;;;;;22.60;13.73;;;21.20;99.90;;;;;;5028123;28;20103;-86
2023/08/25 09:48:45;;;;;;;22.63;14.43;;;21.20;99.90;;;;;;5033885;28;20276;-86
2023/08/25 09:51:11;;;;;;;21.38;14.00;;;21.30;99.90;;;;;;5047140;28;20079;-87
2023/08/25 09:53:38;;;;;;;23.15;14.35;;;21.40;99.90;;;;;;5053495;28;20072;-86
2023/08/25 09:56:07;;;;;;;24.38;14.70;;;21.40;99.90;;;;;;5066895;28;20498;-86
2023/08/25 09:58:37;;;;;;;27.30;14.68;;;21.50;99.90;;;;;;5050815;28;20413;-86
2023/08/25 10:01:04;;;;;;;20.63;13.52;;;21.60;99.90;;;;;;5026668;28;20513;-86
2023/08/25 10:03:30;;;;;;;23.80;14.63;;;21.60;99.90;;;;;;5033546;28;20119;-86
2023/08/25 10:05:58;;;;;;;22.30;13.68;;;21.70;99.90;;;;;;5042751;28;20505;-86
2023/08/25 10:08:25;;;;;;;19.27;13.30;;;21.70;99.90;;;;;;5032845;28;20115;-86
2023/08/25 10:10:51;;;;;;;20.63;13.35;;;21.70;99.90;;;;;;5053537;28;20041;-86
2023/08/25 10:13:19;;;;;;;21.55;13.95;;;21.60;99.90;;;;;;5032834;28;20416;-86
2023/08/25 10:15:46;;;;;;;22.98;14.20;;;21.60;99.90;;;;;;5044880;28;20040;-86
2023/08/25 10:18:12;;;;;;;22.10;13.85;;;21.50;99.90;;;;;;5033240;28;20037;-87
2023/08/25 10:20:39;;;;;;;21.45;14.18;;;21.50;99.90;;;;;;5024325;28;20045;-87
2023/08/25 10:23:07;;;;;;;21.52;13.13;;;21.40;99.90;;;;;;5033913;28;20044;-86
2023/08/25 10:25:33;;;;;;;20.52;13.02;;;21.40;99.90;;;;;;5066412;28;20037;-87
2023/08/25 10:28:01;;;;;;;22.98;13.13;;;21.40;99.90;;;;;;5048315;28;20037;-87
2023/08/25 10:30:28;;;;;;;20.88;13.75;;;21.50;99.90;;;;;;5069790;28;20067;-87
2023/08/25 10:33:04;;;;;;;23.25;13.50;;;21.40;99.90;;;;;;5034936;28;20056;-87
2023/08/25 10:35:44;;;;;;;24.17;14.40;;;21.50;99.90;;;;;;5069488;28;20040;-87
2023/08/25 10:38:19;;;;;;;20.20;13.52;;;21.50;99.90;;;;;;5052569;28;20076;-87
2023/08/25 10:41:18;;;;;;;23.85;14.48;;;21.40;99.90;;;;;;5052980;28;20462;-87
2023/08/25 10:43:50;;;;;;;23.77;13.70;;;21.40;99.90;;;;;;5047455;28;20123;-87
2023/08/25 10:46:19;;;;;;;21.02;14.25;;;21.50;99.90;;;;;;5052084;28;20144;-87
2023/08/25 10:48:47;;;;;;;24.40;14.45;;;21.50;99.90;;;;;;5052716;28;20503;-87
2023/08/25 10:51:18;;;;;;;21.38;14.20;;;21.50;99.90;;;;;;5022170;28;20048;-87
2023/08/25 10:53:46;;;;;;;20.58;13.52;;;21.50;99.90;;;;;;5032587;28;20041;-87
2023/08/25 10:56:21;;;;;;;20.98;13.43;;;21.50;99.90;;;;;;5051810;28;20106;-87
2023/08/25 10:58:57;;;;;;;20.20;13.52;;;21.50;99.90;;;;;;5052457;28;20045;-87
2023/08/25 11:01:33;;;;;;;21.92;13.98;;;21.50;99.90;;;;;;5052281;28;20123;-87
2023/08/25 11:04:07;;;;;;;20.92;14.32;;;21.50;99.90;;;;;;5052476;28;20220;-87
2023/08/25 11:06:44;;;;;;;21.13;13.90;;;21.40;99.90;;;;;;5051954;28;20052;-87
2023/08/25 11:09:31;;;;;;;18.70;13.30;;;21.40;99.90;;;;;;5069151;28;20028;-87
2023/08/25 11:11:59;;;;;;;22.38;13.75;;;21.40;99.90;;;;;;5031908;28;20198;-87
2023/08/25 11:14:29;;;;;;;21.90;14.55;;;21.30;99.90;;;;;;5048936;28;21491;-87
2023/08/25 11:16:56;;;;;;;20.83;14.45;;;21.30;99.90;;;;;;5051858;28;20039;-87
2023/08/25 11:19:24;;;;;;;22.13;14.07;;;21.30;99.90;;;;;;5051630;28;20056;-87
2023/08/25 11:22:09;;;;;;;19.80;13.98;;;21.30;99.90;;;;;;5031729;28;20040;-87
2023/08/25 11:24:35;;;;;;;23.42;15.23;;;21.30;99.90;;;;;;5032302;28;20079;-87
2023/08/25 11:27:10;;;;;;;21.90;13.93;;;21.30;99.90;;;;;;5027381;28;20085;-87
2023/08/25 11:29:39;;;;;;;22.75;14.85;;;21.30;99.90;;;;;;5068484;28;20040;-87
2023/08/25 11:32:05;;;;;;;21.67;14.35;;;21.20;99.90;;;;;;5051148;28;20044;-87
2023/08/25 11:34:32;;;;;;;21.15;14.27;;;21.30;99.90;;;;;;5015587;28;20037;-86
2023/08/25 11:36:58;;;;;;;20.25;14.20;;;21.30;99.90;;;;;;5060782;28;20036;-86
2023/08/25 11:39:24;;;;;;;21.27;14.27;;;21.30;99.90;;;;;;5032061;28;20064;-86
2023/08/25 11:41:54;;;;;;;22.80;14.45;;;21.30;99.90;;;;;;5023341;28;20508;-87
2023/08/25 11:44:20;;;;;;;24.67;15.63;;;21.40;99.90;;;;;;5030427;28;20041;-86
2023/08/25 11:46:45;;;;;;;22.10;13.98;;;21.40;99.90;;;;;;5042557;28;20058;-87
2023/08/25 11:49:12;;;;;;;24.35;15.05;;;21.30;99.90;;;;;;5015687;28;20120;-87
2023/08/25 11:51:41;;;;;;;21.27;14.02;;;21.30;99.90;;;;;;5023444;28;20106;-87
2023/08/25 11:54:07;;;;;;;20.70;13.98;;;21.30;99.90;;;;;;5049062;28;20123;-87
2023/08/25 11:56:32;;;;;;;21.23;14.63;;;21.30;99.90;;;;;;5031255;28;20152;-87
2023/08/25 11:58:58;;;;;;;22.40;14.73;;;21.30;99.90;;;;;;5029975;28;20051;-87
2023/08/25 12:01:32;;;;;;;22.25;14.98;;;21.40;99.90;;;;;;5031463;28;20049;-87
2023/08/25 12:03:59;;;;;;;22.30;15.43;;;21.50;99.90;;;;;;5064657;28;20090;-87
2023/08/25 12:06:25;;;;;;;22.80;15.23;;;21.50;99.90;;;;;;5051145;28;20076;-87
2023/08/25 12:08:51;;;;;;;22.83;15.32;;;21.60;99.90;;;;;;5034008;28;20075;-86
2023/08/25 12:11:16;;;;;;;22.65;15.32;;;21.60;99.90;;;;;;5031619;28;20037;-86
2023/08/25 12:13:46;;;;;;;24.48;15.98;;;21.70;99.90;;;;;;5044760;28;20521;-86
2023/08/25 12:16:13;;;;;;;23.08;15.82;;;21.80;99.90;;;;;;5051216;28;20044;-87
2023/08/25 12:18:42;;;;;;;22.92;15.27;;;21.90;99.90;;;;;;5051313;28;20040;-87
2023/08/25 12:21:08;;;;;;;20.23;14.40;;;21.90;99.90;;;;;;5027078;28;20509;-87
2023/08/25 12:23:39;;;;;;;20.05;14.70;;;21.90;99.90;;;;;;5026996;28;20045;-87
2023/08/25 12:26:13;;;;;;;20.52;14.43;;;21.90;99.90;;;;;;5047502;28;20045;-87
2023/08/25 12:28:40;;;;;;;22.35;14.85;;;21.80;99.90;;;;;;5047199;28;20036;-86